sensor_id;sensor_type;location;lat;lon;timestamp;pressure;altitude;pressure_sealevel;temperature;humidity
56400;BME280;42298;53.638;9.876;2023-04-30T00:01:41;102073.88;;;7.77;61.89
56400;BME280;42298;53.638;9.876;2023-04-30T00:04:07;102056.25;;;7.68;61.60
56400;BME280;42298;53.638;9.876;2023-04-30T00:06:32;102059.00;;;7.68;61.86
56400;BME280;42298;53.638;9.876;2023-04-30T00:08:58;102071.84;;;7.68;61.58
56400;BME280;42298;53.638;9.876;2023-04-30T00:11:23;102074.06;;;7.66;62.20
56400;BME280;42298;53.638;9.876;2023-04-30T00:13:50;102069.63;;;7.65;62.15
56400;BME280;42298;53.638;9.876;2023-04-30T00:16:16;102072.28;;;7.55;61.83
56400;BME280;42298;53.638;9.876;2023-04-30T00:18:41;102074.69;;;7.51;61.39
56400;BME280;42298;53.638;9.876;2023-04-30T00:21:06;102083.75;;;7.52;61.39
56400;BME280;42298;53.638;9.876;2023-04-30T00:23:31;102081.16;;;7.40;62.46
56400;BME280;42298;53.638;9.876;2023-04-30T00:25:58;102078.41;;;7.40;62.19
56400;BME280;42298;53.638;9.876;2023-04-30T00:28:24;102082.47;;;7.38;62.79
56400;BME280;42298;53.638;9.876;2023-04-30T00:30:49;102072.78;;;7.30;62.30
56400;BME280;42298;53.638;9.876;2023-04-30T00:33:14;102086.00;;;7.33;62.04
56400;BME280;42298;53.638;9.876;2023-04-30T00:35:40;102094.16;;;7.28;62.16
56400;BME280;42298;53.638;9.876;2023-04-30T00:38:06;102079.56;;;7.23;61.74
56400;BME280;42298;53.638;9.876;2023-04-30T00:40:36;102087.16;;;7.16;61.60
56400;BME280;42298;53.638;9.876;2023-04-30T00:43:02;102092.56;;;7.11;62.30
56400;BME280;42298;53.638;9.876;2023-04-30T00:45:27;102081.47;;;7.01;62.33
56400;BME280;42298;53.638;9.876;2023-04-30T00:47:52;102085.16;;;6.90;62.67
56400;BME280;42298;53.638;9.876;2023-04-30T00:50:18;102105.47;;;6.94;62.90
56400;BME280;42298;53.638;9.876;2023-04-30T00:52:44;102097.13;;;6.84;63.86
56400;BME280;42298;53.638;9.876;2023-04-30T00:55:10;102097.94;;;6.84;63.72
56400;BME280;42298;53.638;9.876;2023-04-30T00:57:38;102100.63;;;6.79;63.17
56400;BME280;42298;53.638;9.876;2023-04-30T01:00:04;102102.78;;;6.77;63.89
56400;BME280;42298;53.638;9.876;2023-04-30T01:02:30;102107.66;;;6.75;64.03
56400;BME280;42298;53.638;9.876;2023-04-30T01:04:56;102106.94;;;6.63;63.41
56400;BME280;42298;53.638;9.876;2023-04-30T01:07:24;102111.91;;;6.66;63.59
56400;BME280;42298;53.638;9.876;2023-04-30T01:09:53;102101.66;;;6.57;63.75
56400;BME280;42298;53.638;9.876;2023-04-30T01:15:28;102108.25;;;6.61;64.06
56400;BME280;42298;53.638;9.876;2023-04-30T01:18:07;102113.63;;;6.72;63.00
56400;BME280;42298;53.638;9.876;2023-04-30T01:20:38;102110.09;;;6.72;63.57
56400;BME280;42298;53.638;9.876;2023-04-30T01:29:11;102109.41;;;6.48;62.68
56400;BME280;42298;53.638;9.876;2023-04-30T01:31:38;102114.91;;;6.48;62.52
56400;BME280;42298;53.638;9.876;2023-04-30T01:34:03;102116.72;;;6.43;63.16
56400;BME280;42298;53.638;9.876;2023-04-30T01:36:38;102111.34;;;6.48;62.57
56400;BME280;42298;53.638;9.876;2023-04-30T01:42:05;102115.56;;;6.55;62.88
56400;BME280;42298;53.638;9.876;2023-04-30T01:47:56;102118.56;;;6.54;62.31
56400;BME280;42298;53.638;9.876;2023-04-30T01:50:47;102120.56;;;6.42;61.65
56400;BME280;42298;53.638;9.876;2023-04-30T01:53:20;102127.19;;;6.46;62.99
56400;BME280;42298;53.638;9.876;2023-04-30T01:56:03;102122.84;;;6.50;62.55
56400;BME280;42298;53.638;9.876;2023-04-30T01:58:31;102119.38;;;6.38;62.05
56400;BME280;42298;53.638;9.876;2023-04-30T02:00:58;102127.66;;;6.26;63.34
56400;BME280;42298;53.638;9.876;2023-04-30T02:03:23;102127.50;;;6.16;64.06
56400;BME280;42298;53.638;9.876;2023-04-30T02:05:50;102125.91;;;6.04;63.87
56400;BME280;42298;53.638;9.876;2023-04-30T02:08:15;102136.31;;;5.90;64.78
56400;BME280;42298;53.638;9.876;2023-04-30T02:10:41;102141.88;;;5.95;65.37
56400;BME280;42298;53.638;9.876;2023-04-30T02:13:08;102140.38;;;5.88;65.92
56400;BME280;42298;53.638;9.876;2023-04-30T02:15:33;102137.53;;;5.82;66.53
56400;BME280;42298;53.638;9.876;2023-04-30T02:17:58;102143.59;;;5.84;65.27
56400;BME280;42298;53.638;9.876;2023-04-30T02:20:24;102145.00;;;5.87;64.46
56400;BME280;42298;53.638;9.876;2023-04-30T02:22:50;102151.66;;;5.91;64.31
56400;BME280;42298;53.638;9.876;2023-04-30T02:25:16;102148.25;;;6.01;65.80
56400;BME280;42298;53.638;9.876;2023-04-30T02:27:42;102154.50;;;6.13;66.48
56400;BME280;42298;53.638;9.876;2023-04-30T02:30:07;102142.66;;;6.07;64.20
56400;BME280;42298;53.638;9.876;2023-04-30T02:32:33;102157.06;;;6.03;63.92
56400;BME280;42298;53.638;9.876;2023-04-30T02:34:58;102153.00;;;6.05;64.86
56400;BME280;42298;53.638;9.876;2023-04-30T02:37:24;102154.47;;;5.96;63.32
56400;BME280;42298;53.638;9.876;2023-04-30T02:39:50;102153.56;;;5.91;62.64
56400;BME280;42298;53.638;9.876;2023-04-30T02:42:16;102159.50;;;5.88;65.44
56400;BME280;42298;53.638;9.876;2023-04-30T02:44:41;102166.28;;;5.73;65.98
56400;BME280;42298;53.638;9.876;2023-04-30T02:47:06;102156.81;;;5.64;64.80
56400;BME280;42298;53.638;9.876;2023-04-30T02:49:32;102157.72;;;5.53;65.90
56400;BME280;42298;53.638;9.876;2023-04-30T02:51:57;102164.22;;;5.52;65.45
56400;BME280;42298;53.638;9.876;2023-04-30T02:54:23;102153.06;;;5.54;66.45
56400;BME280;42298;53.638;9.876;2023-04-30T02:56:48;102153.78;;;5.49;65.79
56400;BME280;42298;53.638;9.876;2023-04-30T02:59:15;102162.34;;;5.53;65.95
56400;BME280;42298;53.638;9.876;2023-04-30T03:01:41;102158.75;;;5.52;65.80
56400;BME280;42298;53.638;9.876;2023-04-30T03:04:08;102162.56;;;5.51;65.78
56400;BME280;42298;53.638;9.876;2023-04-30T03:06:33;102162.09;;;5.54;65.05
56400;BME280;42298;53.638;9.876;2023-04-30T03:08:59;102161.97;;;5.61;64.90
56400;BME280;42298;53.638;9.876;2023-04-30T03:11:25;102155.91;;;5.59;64.36
56400;BME280;42298;53.638;9.876;2023-04-30T03:13:50;102154.25;;;5.58;66.65
56400;BME280;42298;53.638;9.876;2023-04-30T03:16:17;102155.31;;;5.57;67.92
56400;BME280;42298;53.638;9.876;2023-04-30T03:18:44;102156.75;;;5.48;68.49
56400;BME280;42298;53.638;9.876;2023-04-30T03:21:11;102169.97;;;5.39;67.97
56400;BME280;42298;53.638;9.876;2023-04-30T03:23:36;102172.09;;;5.37;66.12
56400;BME280;42298;53.638;9.876;2023-04-30T03:26:01;102171.53;;;5.35;64.95
56400;BME280;42298;53.638;9.876;2023-04-30T03:28:28;102173.88;;;5.43;64.94
56400;BME280;42298;53.638;9.876;2023-04-30T03:30:53;102176.22;;;5.51;64.89
56400;BME280;42298;53.638;9.876;2023-04-30T03:33:19;102175.38;;;5.51;64.33
56400;BME280;42298;53.638;9.876;2023-04-30T03:35:47;102164.47;;;5.51;64.95
56400;BME280;42298;53.638;9.876;2023-04-30T03:38:13;102172.81;;;5.44;65.63
56400;BME280;42298;53.638;9.876;2023-04-30T03:40:40;102166.16;;;5.40;65.35
56400;BME280;42298;53.638;9.876;2023-04-30T03:43:06;102185.59;;;5.55;64.44
56400;BME280;42298;53.638;9.876;2023-04-30T03:45:31;102190.50;;;5.53;63.50
56400;BME280;42298;53.638;9.876;2023-04-30T03:47:56;102178.59;;;5.59;63.28
56400;BME280;42298;53.638;9.876;2023-04-30T03:50:22;102190.31;;;5.71;65.37
56400;BME280;42298;53.638;9.876;2023-04-30T03:52:47;102191.97;;;5.72;65.84
56400;BME280;42298;53.638;9.876;2023-04-30T03:55:12;102177.38;;;5.67;65.45
56400;BME280;42298;53.638;9.876;2023-04-30T03:57:38;102174.41;;;5.68;64.48
56400;BME280;42298;53.638;9.876;2023-04-30T04:00:09;102194.13;;;5.70;64.36
56400;BME280;42298;53.638;9.876;2023-04-30T04:02:36;102189.13;;;5.67;64.45
56400;BME280;42298;53.638;9.876;2023-04-30T04:05:02;102194.72;;;5.72;64.36
56400;BME280;42298;53.638;9.876;2023-04-30T04:07:27;102179.88;;;5.68;65.10
56400;BME280;42298;53.638;9.876;2023-04-30T04:09:53;102188.66;;;5.82;66.73
56400;BME280;42298;53.638;9.876;2023-04-30T04:12:18;102195.41;;;5.91;66.23
56400;BME280;42298;53.638;9.876;2023-04-30T04:14:43;102194.44;;;5.97;65.01
56400;BME280;42298;53.638;9.876;2023-04-30T04:17:09;102188.97;;;5.97;65.46
56400;BME280;42298;53.638;9.876;2023-04-30T04:19:35;102192.72;;;6.08;64.88
56400;BME280;42298;53.638;9.876;2023-04-30T04:22:00;102188.16;;;6.13;64.41
56400;BME280;42298;53.638;9.876;2023-04-30T04:24:27;102197.16;;;6.25;64.37
56400;BME280;42298;53.638;9.876;2023-04-30T04:26:53;102191.69;;;6.42;64.78
56400;BME280;42298;53.638;9.876;2023-04-30T04:29:19;102206.66;;;6.67;64.01
56400;BME280;42298;53.638;9.876;2023-04-30T04:31:44;102201.34;;;6.94;65.05
56400;BME280;42298;53.638;9.876;2023-04-30T04:34:11;102203.03;;;7.33;63.06
56400;BME280;42298;53.638;9.876;2023-04-30T04:36:36;102206.63;;;7.76;62.63
56400;BME280;42298;53.638;9.876;2023-04-30T04:39:02;102205.19;;;8.17;61.67
56400;BME280;42298;53.638;9.876;2023-04-30T04:41:32;102215.53;;;8.63;61.14
56400;BME280;42298;53.638;9.876;2023-04-30T04:44:00;102218.13;;;9.11;60.28
56400;BME280;42298;53.638;9.876;2023-04-30T04:46:26;102207.78;;;9.80;58.51
56400;BME280;42298;53.638;9.876;2023-04-30T04:48:52;102201.88;;;10.18;58.15
56400;BME280;42298;53.638;9.876;2023-04-30T04:51:17;102209.38;;;10.63;56.22
56400;BME280;42298;53.638;9.876;2023-04-30T04:53:43;102203.59;;;11.14;55.19
56400;BME280;42298;53.638;9.876;2023-04-30T04:56:08;102210.94;;;11.59;53.82
56400;BME280;42298;53.638;9.876;2023-04-30T04:58:33;102216.22;;;12.19;52.77
56400;BME280;42298;53.638;9.876;2023-04-30T05:00:59;102222.50;;;12.73;51.45
56400;BME280;42298;53.638;9.876;2023-04-30T05:03:28;102233.44;;;13.22;51.22
56400;BME280;42298;53.638;9.876;2023-04-30T05:05:53;102232.50;;;13.60;50.53
56400;BME280;42298;53.638;9.876;2023-04-30T05:08:19;102236.34;;;14.06;49.00
56400;BME280;42298;53.638;9.876;2023-04-30T05:10:44;102234.75;;;14.61;47.70
56400;BME280;42298;53.638;9.876;2023-04-30T05:13:09;102245.06;;;15.11;46.81
56400;BME280;42298;53.638;9.876;2023-04-30T05:15:35;102250.59;;;15.43;46.22
56400;BME280;42298;53.638;9.876;2023-04-30T05:18:01;102245.94;;;15.84;45.31
56400;BME280;42298;53.638;9.876;2023-04-30T05:20:26;102254.78;;;16.13;44.42
56400;BME280;42298;53.638;9.876;2023-04-30T05:22:51;102254.25;;;16.25;43.88
56400;BME280;42298;53.638;9.876;2023-04-30T05:25:17;102247.66;;;16.34;44.10
56400;BME280;42298;53.638;9.876;2023-04-30T05:27:42;102255.63;;;16.63;43.62
56400;BME280;42298;53.638;9.876;2023-04-30T05:30:08;102267.69;;;16.94;43.90
56400;BME280;42298;53.638;9.876;2023-04-30T05:32:33;102259.63;;;17.37;42.71
56400;BME280;42298;53.638;9.876;2023-04-30T05:34:59;102271.25;;;17.61;42.51
56400;BME280;42298;53.638;9.876;2023-04-30T05:37:25;102251.25;;;17.98;42.30
56400;BME280;42298;53.638;9.876;2023-04-30T05:39:51;102253.03;;;18.41;40.36
56400;BME280;42298;53.638;9.876;2023-04-30T05:42:18;102254.88;;;18.63;40.61
56400;BME280;42298;53.638;9.876;2023-04-30T05:44:43;102268.66;;;18.93;39.20
56400;BME280;42298;53.638;9.876;2023-04-30T05:47:09;102269.16;;;19.04;39.16
56400;BME280;42298;53.638;9.876;2023-04-30T05:49:34;102267.97;;;19.22;39.73
56400;BME280;42298;53.638;9.876;2023-04-30T05:51:59;102268.63;;;19.45;39.02
56400;BME280;42298;53.638;9.876;2023-04-30T05:54:26;102273.34;;;19.61;38.27
56400;BME280;42298;53.638;9.876;2023-04-30T05:56:51;102254.00;;;19.48;37.88
56400;BME280;42298;53.638;9.876;2023-04-30T05:59:16;102268.50;;;19.41;37.93
56400;BME280;42298;53.638;9.876;2023-04-30T06:01:42;102256.00;;;19.39;38.26
56400;BME280;42298;53.638;9.876;2023-04-30T06:04:08;102270.56;;;19.61;37.78
56400;BME280;42298;53.638;9.876;2023-04-30T06:06:33;102263.75;;;19.79;37.82
56400;BME280;42298;53.638;9.876;2023-04-30T06:08:58;102268.97;;;19.89;36.87
56400;BME280;42298;53.638;9.876;2023-04-30T06:11:24;102273.88;;;19.92;36.72
56400;BME280;42298;53.638;9.876;2023-04-30T06:13:50;102280.19;;;19.81;36.68
56400;BME280;42298;53.638;9.876;2023-04-30T06:16:15;102279.75;;;19.70;36.56
56400;BME280;42298;53.638;9.876;2023-04-30T06:18:40;102286.94;;;19.80;36.39
56400;BME280;42298;53.638;9.876;2023-04-30T06:21:06;102287.91;;;19.84;35.51
56400;BME280;42298;53.638;9.876;2023-04-30T06:23:31;102282.63;;;19.36;34.64
56400;BME280;42298;53.638;9.876;2023-04-30T06:25:57;102290.41;;;19.68;34.78
56400;BME280;42298;53.638;9.876;2023-04-30T06:28:22;102294.13;;;19.89;33.69
56400;BME280;42298;53.638;9.876;2023-04-30T06:30:48;102292.91;;;20.07;33.66
56400;BME280;42298;53.638;9.876;2023-04-30T06:33:13;102296.50;;;20.25;34.03
56400;BME280;42298;53.638;9.876;2023-04-30T06:35:38;102297.69;;;20.44;33.58
56400;BME280;42298;53.638;9.876;2023-04-30T06:38:06;102299.47;;;20.20;32.58
56400;BME280;42298;53.638;9.876;2023-04-30T06:40:38;102290.31;;;20.02;33.23
56400;BME280;42298;53.638;9.876;2023-04-30T06:43:05;102286.84;;;19.59;33.19
56400;BME280;42298;53.638;9.876;2023-04-30T06:45:30;102301.13;;;19.66;33.15
56400;BME280;42298;53.638;9.876;2023-04-30T06:47:56;102294.88;;;19.69;33.53
56400;BME280;42298;53.638;9.876;2023-04-30T06:50:21;102296.09;;;19.34;32.24
56400;BME280;42298;53.638;9.876;2023-04-30T06:52:47;102293.78;;;19.45;33.53
56400;BME280;42298;53.638;9.876;2023-04-30T06:55:12;102295.53;;;19.66;33.17
56400;BME280;42298;53.638;9.876;2023-04-30T06:57:38;102299.16;;;19.67;32.77
56400;BME280;42298;53.638;9.876;2023-04-30T07:00:05;102291.63;;;19.59;32.34
56400;BME280;42298;53.638;9.876;2023-04-30T07:02:31;102296.28;;;19.04;32.53
56400;BME280;42298;53.638;9.876;2023-04-30T07:04:56;102304.97;;;19.36;33.34
56400;BME280;42298;53.638;9.876;2023-04-30T07:07:22;102305.41;;;19.64;33.22
56400;BME280;42298;53.638;9.876;2023-04-30T07:09:47;102308.88;;;19.52;31.11
56400;BME280;42298;53.638;9.876;2023-04-30T07:12:12;102315.53;;;19.85;32.74
56400;BME280;42298;53.638;9.876;2023-04-30T07:14:38;102308.19;;;19.72;30.49
56400;BME280;42298;53.638;9.876;2023-04-30T07:17:05;102308.91;;;19.18;31.25
56400;BME280;42298;53.638;9.876;2023-04-30T07:19:30;102305.78;;;19.02;31.13
56400;BME280;42298;53.638;9.876;2023-04-30T07:21:56;102308.56;;;18.77;32.40
56400;BME280;42298;53.638;9.876;2023-04-30T07:24:23;102316.28;;;18.71;33.50
56400;BME280;42298;53.638;9.876;2023-04-30T07:26:48;102319.06;;;18.71;33.21
56400;BME280;42298;53.638;9.876;2023-04-30T07:29:15;102318.00;;;18.33;31.91
56400;BME280;42298;53.638;9.876;2023-04-30T07:31:40;102321.16;;;18.10;32.91
56400;BME280;42298;53.638;9.876;2023-04-30T07:34:07;102319.41;;;17.83;32.95
56400;BME280;42298;53.638;9.876;2023-04-30T07:36:33;102328.22;;;18.07;33.63
56400;BME280;42298;53.638;9.876;2023-04-30T07:38:58;102328.19;;;17.99;32.95
56400;BME280;42298;53.638;9.876;2023-04-30T07:41:24;102321.31;;;17.44;33.48
56400;BME280;42298;53.638;9.876;2023-04-30T07:43:50;102314.38;;;16.97;34.39
56400;BME280;42298;53.638;9.876;2023-04-30T07:46:15;102333.66;;;16.44;34.55
56400;BME280;42298;53.638;9.876;2023-04-30T07:48:41;102319.41;;;16.32;34.66
56400;BME280;42298;53.638;9.876;2023-04-30T07:51:06;102324.06;;;16.37;34.52
56400;BME280;42298;53.638;9.876;2023-04-30T07:53:31;102316.41;;;16.69;34.80
56400;BME280;42298;53.638;9.876;2023-04-30T07:55:57;102319.63;;;17.21;34.80
56400;BME280;42298;53.638;9.876;2023-04-30T07:58:23;102326.09;;;17.30;33.70
56400;BME280;42298;53.638;9.876;2023-04-30T08:00:50;102334.97;;;17.54;33.60
56400;BME280;42298;53.638;9.876;2023-04-30T08:03:16;102340.75;;;17.88;33.24
56400;BME280;42298;53.638;9.876;2023-04-30T08:05:46;102339.84;;;17.70;33.40
56400;BME280;42298;53.638;9.876;2023-04-30T08:08:11;102326.78;;;17.35;33.17
56400;BME280;42298;53.638;9.876;2023-04-30T08:10:37;102331.78;;;17.25;34.10
56400;BME280;42298;53.638;9.876;2023-04-30T08:13:04;102331.03;;;17.33;34.48
56400;BME280;42298;53.638;9.876;2023-04-30T08:15:29;102320.69;;;17.77;34.20
56400;BME280;42298;53.638;9.876;2023-04-30T08:17:55;102332.91;;;18.29;33.62
56400;BME280;42298;53.638;9.876;2023-04-30T08:20:20;102334.78;;;18.42;31.45
56400;BME280;42298;53.638;9.876;2023-04-30T08:22:47;102331.22;;;18.58;32.67
56400;BME280;42298;53.638;9.876;2023-04-30T08:25:13;102335.44;;;18.39;32.31
56400;BME280;42298;53.638;9.876;2023-04-30T08:27:39;102343.69;;;18.69;32.12
56400;BME280;42298;53.638;9.876;2023-04-30T08:30:06;102349.00;;;19.05;30.96
56400;BME280;42298;53.638;9.876;2023-04-30T08:32:35;102343.09;;;19.15;30.62
56400;BME280;42298;53.638;9.876;2023-04-30T08:35:03;102338.28;;;18.73;30.83
56400;BME280;42298;53.638;9.876;2023-04-30T08:37:28;102345.94;;;18.42;31.47
56400;BME280;42298;53.638;9.876;2023-04-30T08:39:53;102347.81;;;18.89;31.87
56400;BME280;42298;53.638;9.876;2023-04-30T08:42:19;102334.69;;;18.98;30.80
56400;BME280;42298;53.638;9.876;2023-04-30T08:44:49;102335.16;;;18.66;30.95
56400;BME280;42298;53.638;9.876;2023-04-30T08:47:15;102334.53;;;19.03;31.26
56400;BME280;42298;53.638;9.876;2023-04-30T08:49:41;102329.63;;;19.51;30.11
56400;BME280;42298;53.638;9.876;2023-04-30T08:52:08;102336.41;;;19.96;30.27
56400;BME280;42298;53.638;9.876;2023-04-30T08:54:35;102331.09;;;19.57;29.01
56400;BME280;42298;53.638;9.876;2023-04-30T08:57:01;102346.03;;;19.10;29.80
56400;BME280;42298;53.638;9.876;2023-04-30T08:59:27;102333.91;;;19.23;29.71
56400;BME280;42298;53.638;9.876;2023-04-30T09:01:53;102334.53;;;19.54;30.59
56400;BME280;42298;53.638;9.876;2023-04-30T09:04:18;102329.56;;;19.68;29.62
56400;BME280;42298;53.638;9.876;2023-04-30T09:06:45;102346.34;;;19.68;29.23
56400;BME280;42298;53.638;9.876;2023-04-30T09:09:13;102327.56;;;19.77;30.68
56400;BME280;42298;53.638;9.876;2023-04-30T09:11:39;102337.69;;;20.16;30.61
56400;BME280;42298;53.638;9.876;2023-04-30T09:14:04;102340.06;;;20.63;29.31
56400;BME280;42298;53.638;9.876;2023-04-30T09:16:45;102336.84;;;20.94;29.80
56400;BME280;42298;53.638;9.876;2023-04-30T09:19:26;102334.22;;;21.18;29.28
56400;BME280;42298;53.638;9.876;2023-04-30T09:21:54;102317.69;;;21.05;28.20
56400;BME280;42298;53.638;9.876;2023-04-30T09:24:19;102329.31;;;20.65;28.48
56400;BME280;42298;53.638;9.876;2023-04-30T09:26:45;102332.56;;;20.18;28.94
56400;BME280;42298;53.638;9.876;2023-04-30T09:29:12;102344.91;;;20.08;30.16
56400;BME280;42298;53.638;9.876;2023-04-30T09:31:38;102339.28;;;19.62;29.77
56400;BME280;42298;53.638;9.876;2023-04-30T09:34:04;102333.41;;;18.87;30.88
56400;BME280;42298;53.638;9.876;2023-04-30T09:36:31;102338.09;;;18.61;30.92
56400;BME280;42298;53.638;9.876;2023-04-30T09:39:05;102320.91;;;18.93;30.65
56400;BME280;42298;53.638;9.876;2023-04-30T09:41:31;102330.94;;;19.28;30.60
56400;BME280;42298;53.638;9.876;2023-04-30T09:43:56;102329.63;;;19.51;30.48
56400;BME280;42298;53.638;9.876;2023-04-30T09:46:32;102317.91;;;19.66;30.21
56400;BME280;42298;53.638;9.876;2023-04-30T09:49:00;102315.72;;;19.80;30.81
56400;BME280;42298;53.638;9.876;2023-04-30T09:51:25;102323.56;;;19.95;29.81
56400;BME280;42298;53.638;9.876;2023-04-30T09:53:53;102320.41;;;20.05;29.77
56400;BME280;42298;53.638;9.876;2023-04-30T09:56:20;102309.06;;;19.56;29.98
56400;BME280;42298;53.638;9.876;2023-04-30T09:58:53;102316.81;;;18.99;30.06
56400;BME280;42298;53.638;9.876;2023-04-30T10:01:20;102312.50;;;18.76;30.54
56400;BME280;42298;53.638;9.876;2023-04-30T10:03:46;102307.91;;;18.71;30.89
56400;BME280;42298;53.638;9.876;2023-04-30T10:06:20;102306.47;;;18.82;31.29
56400;BME280;42298;53.638;9.876;2023-04-30T10:08:47;102293.13;;;19.22;30.99
56400;BME280;42298;53.638;9.876;2023-04-30T10:11:18;102296.00;;;19.68;30.20
56400;BME280;42298;53.638;9.876;2023-04-30T10:13:59;102288.19;;;19.99;29.50
56400;BME280;42298;53.638;9.876;2023-04-30T10:16:36;102291.00;;;20.37;30.54
56400;BME280;42298;53.638;9.876;2023-04-30T10:19:10;102295.00;;;19.81;30.01
56400;BME280;42298;53.638;9.876;2023-04-30T10:21:41;102290.09;;;19.78;30.11
56400;BME280;42298;53.638;9.876;2023-04-30T10:24:08;102293.66;;;19.87;29.69
56400;BME280;42298;53.638;9.876;2023-04-30T10:26:34;102285.19;;;20.04;29.19
56400;BME280;42298;53.638;9.876;2023-04-30T10:29:01;102288.19;;;19.99;29.69
56400;BME280;42298;53.638;9.876;2023-04-30T10:31:28;102280.63;;;19.45;30.13
56400;BME280;42298;53.638;9.876;2023-04-30T10:36:50;102285.09;;;19.38;31.24
56400;BME280;42298;53.638;9.876;2023-04-30T10:39:22;102281.41;;;19.63;31.42
56400;BME280;42298;53.638;9.876;2023-04-30T10:41:48;102286.41;;;19.86;30.81
56400;BME280;42298;53.638;9.876;2023-04-30T10:44:14;102269.78;;;19.90;30.04
56400;BME280;42298;53.638;9.876;2023-04-30T10:46:41;102276.31;;;19.56;30.11
56400;BME280;42298;53.638;9.876;2023-04-30T10:49:07;102278.19;;;19.27;30.74
56400;BME280;42298;53.638;9.876;2023-04-30T10:51:49;102268.66;;;18.68;30.84
56400;BME280;42298;53.638;9.876;2023-04-30T10:54:37;102271.03;;;18.27;31.93
56400;BME280;42298;53.638;9.876;2023-04-30T10:57:14;102272.72;;;18.36;31.32
56400;BME280;42298;53.638;9.876;2023-04-30T11:02:46;102257.59;;;18.29;31.73
56400;BME280;42298;53.638;9.876;2023-04-30T11:05:16;102260.78;;;18.61;31.14
56400;BME280;42298;53.638;9.876;2023-04-30T11:07:55;102263.41;;;18.83;31.87
56400;BME280;42298;53.638;9.876;2023-04-30T11:10:23;102244.53;;;19.06;30.64
56400;BME280;42298;53.638;9.876;2023-04-30T11:12:52;102255.38;;;18.82;33.92
56400;BME280;42298;53.638;9.876;2023-04-30T11:15:20;102249.44;;;18.92;32.36
56400;BME280;42298;53.638;9.876;2023-04-30T11:17:47;102254.88;;;18.88;32.29
56400;BME280;42298;53.638;9.876;2023-04-30T11:20:22;102255.69;;;18.89;31.73
56400;BME280;42298;53.638;9.876;2023-04-30T11:23:14;102257.34;;;18.90;31.71
56400;BME280;42298;53.638;9.876;2023-04-30T11:25:45;102250.44;;;18.79;32.35
56400;BME280;42298;53.638;9.876;2023-04-30T11:28:31;102250.25;;;18.50;31.99
56400;BME280;42298;53.638;9.876;2023-04-30T11:30:59;102246.84;;;18.05;31.80
56400;BME280;42298;53.638;9.876;2023-04-30T11:33:31;102238.66;;;18.00;34.15
56400;BME280;42298;53.638;9.876;2023-04-30T11:35:58;102243.03;;;18.40;32.70
56400;BME280;42298;53.638;9.876;2023-04-30T11:38:43;102238.28;;;18.58;32.41
56400;BME280;42298;53.638;9.876;2023-04-30T11:41:12;102252.41;;;18.61;34.10
56400;BME280;42298;53.638;9.876;2023-04-30T11:43:38;102235.44;;;18.32;31.97
56400;BME280;42298;53.638;9.876;2023-04-30T11:46:06;102229.19;;;18.18;32.99
56400;BME280;42298;53.638;9.876;2023-04-30T11:48:36;102240.91;;;18.46;32.87
56400;BME280;42298;53.638;9.876;2023-04-30T11:51:23;102226.13;;;18.71;31.93
56400;BME280;42298;53.638;9.876;2023-04-30T11:53:50;102232.06;;;18.52;31.70
56400;BME280;42298;53.638;9.876;2023-04-30T11:56:19;102222.34;;;18.50;31.69
56400;BME280;42298;53.638;9.876;2023-04-30T11:58:46;102222.59;;;18.14;32.74
56400;BME280;42298;53.638;9.876;2023-04-30T12:01:12;102211.56;;;17.92;33.09
56400;BME280;42298;53.638;9.876;2023-04-30T12:03:42;102227.00;;;17.98;33.67
56400;BME280;42298;53.638;9.876;2023-04-30T12:06:10;102224.16;;;18.37;33.32
56400;BME280;42298;53.638;9.876;2023-04-30T12:08:36;102227.13;;;18.75;32.60
56400;BME280;42298;53.638;9.876;2023-04-30T12:11:02;102221.03;;;18.47;32.26
56400;BME280;42298;53.638;9.876;2023-04-30T12:13:30;102212.97;;;18.29;33.57
56400;BME280;42298;53.638;9.876;2023-04-30T12:15:57;102223.19;;;18.42;32.55
56400;BME280;42298;53.638;9.876;2023-04-30T12:18:23;102214.28;;;18.23;33.83
56400;BME280;42298;53.638;9.876;2023-04-30T12:20:48;102201.31;;;18.27;33.86
56400;BME280;42298;53.638;9.876;2023-04-30T12:23:14;102207.66;;;18.02;33.35
56400;BME280;42298;53.638;9.876;2023-04-30T12:25:40;102204.94;;;17.80;33.14
56400;BME280;42298;53.638;9.876;2023-04-30T12:28:09;102214.34;;;17.84;32.84
56400;BME280;42298;53.638;9.876;2023-04-30T12:30:35;102206.22;;;17.65;33.53
56400;BME280;42298;53.638;9.876;2023-04-30T12:33:01;102198.53;;;17.71;33.73
56400;BME280;42298;53.638;9.876;2023-04-30T12:35:29;102202.47;;;17.78;34.40
56400;BME280;42298;53.638;9.876;2023-04-30T12:38:05;102191.41;;;17.48;33.56
56400;BME280;42298;53.638;9.876;2023-04-30T12:40:31;102202.06;;;17.24;34.72
56400;BME280;42298;53.638;9.876;2023-04-30T12:43:07;102206.63;;;17.20;34.03
56400;BME280;42298;53.638;9.876;2023-04-30T12:48:15;102191.28;;;17.61;34.31
56400;BME280;42298;53.638;9.876;2023-04-30T12:50:41;102180.88;;;17.84;35.68
56400;BME280;42298;53.638;9.876;2023-04-30T12:53:07;102183.09;;;18.21;34.73
56400;BME280;42298;53.638;9.876;2023-04-30T12:55:33;102178.22;;;18.52;33.62
56400;BME280;42298;53.638;9.876;2023-04-30T12:58:12;102185.28;;;18.75;32.44
56400;BME280;42298;53.638;9.876;2023-04-30T13:00:46;102182.78;;;18.99;33.46
56400;BME280;42298;53.638;9.876;2023-04-30T13:03:14;102183.91;;;19.07;33.21
56400;BME280;42298;53.638;9.876;2023-04-30T13:05:41;102180.44;;;19.01;31.97
56400;BME280;42298;53.638;9.876;2023-04-30T13:08:06;102173.91;;;18.97;32.28
56400;BME280;42298;53.638;9.876;2023-04-30T13:10:33;102184.06;;;19.02;33.11
56400;BME280;42298;53.638;9.876;2023-04-30T13:12:58;102166.88;;;18.82;33.57
56400;BME280;42298;53.638;9.876;2023-04-30T13:15:24;102172.94;;;18.76;33.80
56400;BME280;42298;53.638;9.876;2023-04-30T13:17:49;102166.88;;;18.82;33.25